Terminal Aerodrome Forecast
Issued by NWS Omaha/Valley, NE

Home | Current Version | Previous Version | Graphics & Text | Print | Product List | Glossary Off
Versions: 1 2 3 4 5 6 7 8 9 10 11 12 13 14 15 16 17 18 19 20 21 22 23 24 25 26 27 28 29 30 31 32 33 34 35 36 37 38

000
FTUS43 KOAX 241721
TAFOFK
TAF
KOFK 241721Z 2418/2518 09004KT P6SM OVC007
      TEMPO 2419/2420 OVC015
     FM242000 VRB04KT P6SM OVC015
      TEMPO 2421/2423 BKN025
     FM242300 12005KT P6SM BKN035
     FM250300 VRB03KT 6SM BR OVC015 PROB30 2504/2510 -SHRA BKN025
     FM251000 19003KT 3SM BR OVC005
      TEMPO 2515/2518 P6SM NSW BKN025=

USA.gov is the U.S. government's official web portal to all federal, state and local government web resources and services.